createdAt,value
2022-08-05T00:00:51.070Z,88.5
2022-08-05T00:02:27.399Z,86.5
2022-08-05T00:04:03.737Z,86.5
2022-08-05T00:05:39.079Z,86.5
2022-08-05T00:07:15.384Z,86.5
2022-08-05T00:08:51.769Z,87
2022-08-05T00:10:28.047Z,87
2022-08-05T00:12:04.363Z,87
2022-08-05T00:13:40.724Z,87.5
2022-08-05T00:15:17.040Z,87
2022-08-05T00:16:53.400Z,88.5
2022-08-05T00:18:29.696Z,89
2022-08-05T00:20:06.058Z,89.5
2022-08-05T00:21:42.409Z,89
2022-08-05T00:23:18.701Z,88.5
2022-08-05T00:24:55.070Z,88.5
2022-08-05T00:26:30.397Z,89
2022-08-05T00:28:06.710Z,88.5
2022-08-05T00:29:43.042Z,88
2022-08-05T00:31:19.387Z,88
2022-08-05T00:32:55.689Z,87.5
2022-08-05T00:34:32.011Z,88
2022-08-05T00:36:08.375Z,88
2022-08-05T00:37:44.711Z,88
2022-08-05T00:39:21.051Z,88
2022-08-05T00:40:57.388Z,87.5
2022-08-05T00:42:33.701Z,87
2022-08-05T00:44:10.020Z,87
2022-08-05T00:45:46.331Z,86.5
2022-08-05T00:47:22.718Z,87
2022-08-05T00:48:58.005Z,86.5
2022-08-05T00:50:34.375Z,86.5
2022-08-05T00:52:10.687Z,86.5
2022-08-05T00:53:47.036Z,87
2022-08-05T00:55:23.381Z,87.5
2022-08-05T00:56:59.660Z,87
2022-08-05T00:58:36.032Z,86.5
2022-08-05T01:00:12.329Z,86.5
2022-08-05T01:01:48.677Z,86.5
2022-08-05T01:03:25.005Z,86
2022-08-05T01:05:01.310Z,86
2022-08-05T01:06:37.652Z,85.5
2022-08-05T01:08:13.981Z,85.5
2022-08-05T01:09:49.318Z,85.5
2022-08-05T01:11:25.687Z,85
2022-08-05T01:13:01.983Z,85
2022-08-05T01:14:38.325Z,84.5
2022-08-05T01:16:14.668Z,84.5
2022-08-05T01:17:51.004Z,84.5
2022-08-05T01:19:27.319Z,84.5
2022-08-05T01:21:03.667Z,84.5
2022-08-05T01:22:39.989Z,85
2022-08-05T01:24:16.306Z,85
2022-08-05T01:25:52.621Z,85
2022-08-05T01:27:28.983Z,85.5
2022-08-05T01:29:05.331Z,86
2022-08-05T01:30:41.648Z,86.5
2022-08-05T01:32:16.968Z,87.5
2022-08-05T01:33:53.390Z,88
2022-08-05T01:35:29.629Z,88
2022-08-05T01:37:05.958Z,88
2022-08-05T01:38:42.328Z,88.5
2022-08-05T01:40:18.627Z,88
2022-08-05T01:41:54.994Z,87.5
2022-08-05T01:43:31.319Z,87.5
2022-08-05T01:45:07.648Z,86.5
2022-08-05T01:46:43.945Z,86
2022-08-05T01:48:20.265Z,84.5
2022-08-05T01:49:56.624Z,84
2022-08-05T01:51:32.967Z,84.5
2022-08-05T01:53:08.314Z,84.5
2022-08-05T01:54:44.647Z,84.5
2022-08-05T01:56:20.943Z,84.5
2022-08-05T01:57:57.278Z,83.5
2022-08-05T01:59:33.606Z,83.5
2022-08-05T02:01:09.948Z,83
2022-08-05T02:02:46.264Z,83
2022-08-05T02:04:22.630Z,82.5
2022-08-05T02:05:58.967Z,83.5
2022-08-05T02:07:35.293Z,83.5
2022-08-05T02:09:11.601Z,84
2022-08-05T02:10:47.927Z,83.5
2022-08-05T02:12:24.260Z,84
2022-08-05T02:13:59.618Z,84.5
2022-08-05T02:15:35.934Z,85.5
2022-08-05T02:17:12.254Z,85.5
2022-08-05T02:18:48.593Z,85.5
2022-08-05T02:20:24.918Z,86
2022-08-05T02:22:01.257Z,86.5
2022-08-05T02:23:37.594Z,87
2022-08-05T02:25:13.910Z,87
2022-08-05T02:26:50.263Z,87.5
2022-08-05T02:28:26.575Z,87.5
2022-08-05T02:30:02.918Z,87.5
2022-08-05T02:31:39.256Z,87.5
2022-08-05T02:33:15.604Z,87.5
2022-08-05T02:34:50.910Z,88
2022-08-05T02:36:27.248Z,88
2022-08-05T02:38:03.577Z,87.5
2022-08-05T02:39:39.923Z,88
2022-08-05T02:41:16.248Z,88
2022-08-05T02:42:52.558Z,87.5
2022-08-05T02:44:28.931Z,87.5
2022-08-05T02:46:05.248Z,88
2022-08-05T02:47:41.582Z,88
2022-08-05T02:49:17.882Z,88.5
2022-08-05T02:50:54.254Z,88.5
2022-08-05T02:52:30.585Z,89
2022-08-05T02:54:06.910Z,89
2022-08-05T02:55:43.211Z,89.5
2022-08-05T02:57:18.551Z,89.5
2022-08-05T02:58:54.888Z,90
2022-08-05T03:00:31.233Z,90
2022-08-05T03:02:07.578Z,90.5
2022-08-05T03:03:43.892Z,91
2022-08-05T03:05:20.221Z,91.5
2022-08-05T03:06:56.589Z,91.5
2022-08-05T03:08:32.869Z,92
2022-08-05T03:10:09.245Z,92.5
2022-08-05T03:11:45.541Z,92.5
2022-08-05T03:13:21.853Z,93
2022-08-05T03:14:58.206Z,93
2022-08-05T03:16:34.528Z,92.5
2022-08-05T03:18:09.890Z,92.5
2022-08-05T03:19:46.214Z,93
2022-08-05T03:21:22.536Z,93
2022-08-05T03:22:58.907Z,93
2022-08-05T03:24:35.244Z,93.5
2022-08-05T03:26:11.526Z,94.5
2022-08-05T03:27:47.861Z,95
2022-08-05T03:29:23.214Z,95
2022-08-05T03:30:59.566Z,95.5
2022-08-05T03:32:35.902Z,95.5
2022-08-05T03:34:12.198Z,96
2022-08-05T03:35:48.536Z,97
2022-08-05T03:37:24.873Z,98
2022-08-05T03:39:01.194Z,98.5
2022-08-05T03:40:37.536Z,98.5
2022-08-05T03:42:13.879Z,99
2022-08-05T03:43:50.186Z,99.5
2022-08-05T03:45:26.526Z,99.5
2022-08-05T03:47:02.848Z,99.5
2022-08-05T03:48:39.216Z,99.5
2022-08-05T03:50:14.539Z,99.5
2022-08-05T03:51:50.899Z,99.5
2022-08-05T03:53:27.200Z,99.5
2022-08-05T03:55:03.527Z,99.5
2022-08-05T03:56:39.866Z,99.5
2022-08-05T03:58:16.217Z,99.5
2022-08-05T04:01:28.854Z,99.5
2022-08-05T04:03:05.198Z,99.5
2022-08-05T04:04:41.508Z,99.5
2022-08-05T04:06:17.865Z,99.5
2022-08-05T04:07:54.164Z,99.5
2022-08-05T04:09:30.500Z,99.5
2022-08-05T04:11:06.829Z,99.5
2022-08-05T04:14:18.511Z,99.5
2022-08-05T04:15:54.829Z,99.5
2022-08-05T04:17:31.171Z,99.5
2022-08-05T04:19:07.509Z,99.5
2022-08-05T04:20:43.828Z,99.5
2022-08-05T04:22:20.159Z,99.5
2022-08-05T04:23:56.491Z,99.5
2022-08-05T04:25:32.817Z,99.5
2022-08-05T04:27:09.193Z,99.5
2022-08-05T04:28:45.486Z,99.5
2022-08-05T04:30:21.806Z,99.5
2022-08-05T04:31:58.144Z,99.5
2022-08-05T04:33:34.483Z,99.5
2022-08-05T04:35:09.816Z,99.5
2022-08-05T04:36:46.144Z,99.5
2022-08-05T04:38:22.490Z,99.5
2022-08-05T04:39:58.813Z,99.5
2022-08-05T04:41:35.140Z,99.5
2022-08-05T04:43:11.476Z,99.5
2022-08-05T04:44:47.807Z,99.5
2022-08-05T04:46:24.138Z,99.5
2022-08-05T04:48:00.463Z,99.5
2022-08-05T04:49:36.795Z,99.5
2022-08-05T04:51:13.134Z,99.5
2022-08-05T04:52:49.458Z,99.5
2022-08-05T04:54:25.777Z,99.5
2022-08-05T04:56:02.113Z,99.5
2022-08-05T04:57:37.471Z,99.5
2022-08-05T04:59:13.800Z,99.5
2022-08-05T05:00:50.128Z,99.5
2022-08-05T05:02:26.459Z,99.5
2022-08-05T05:04:02.785Z,99.5
2022-08-05T05:05:39.116Z,99.5
2022-08-05T05:07:15.473Z,99.5
2022-08-05T05:08:51.773Z,99.5
2022-08-05T05:10:28.114Z,99.5
2022-08-05T05:12:04.445Z,99.5
2022-08-05T05:13:40.768Z,99.5
2022-08-05T05:15:17.125Z,99.5
2022-08-05T05:18:29.769Z,99.5
2022-08-05T05:20:05.115Z,99.5
2022-08-05T05:21:41.454Z,99.5
2022-08-05T05:23:17.781Z,99.5
2022-08-05T05:24:54.102Z,99.5
2022-08-05T05:26:30.431Z,99.5
2022-08-05T05:28:06.779Z,99.5
2022-08-05T05:29:43.100Z,99.5
2022-08-05T05:31:19.443Z,99.5
2022-08-05T05:32:55.756Z,99.5
2022-08-05T05:34:32.088Z,99.5
2022-08-05T05:36:08.434Z,99.5
2022-08-05T05:37:44.754Z,99.5
2022-08-05T05:39:21.084Z,99.5
2022-08-05T05:40:57.403Z,99.5
2022-08-05T05:42:33.747Z,99.5
2022-08-05T05:44:10.087Z,99.5
2022-08-05T05:45:45.417Z,99.5
2022-08-05T05:47:21.836Z,99.5
2022-08-05T05:48:58.087Z,99.5
2022-08-05T05:50:34.407Z,99.5
2022-08-05T05:52:10.741Z,99.5
2022-08-05T05:53:47.076Z,99.5
2022-08-05T05:56:59.735Z,99.5
2022-08-05T05:58:36.069Z,99.5
2022-08-05T06:00:12.411Z,99.5
2022-08-05T06:01:48.725Z,99.5
2022-08-05T06:03:25.076Z,99.5
2022-08-05T06:05:01.403Z,99.5
2022-08-05T06:06:37.726Z,99.5
2022-08-05T06:08:14.061Z,99.5
2022-08-05T06:09:50.390Z,99.5
2022-08-05T06:11:25.740Z,99.5
2022-08-05T06:13:02.085Z,99.5
2022-08-05T06:14:38.393Z,99.5
2022-08-05T06:16:14.723Z,99.5
2022-08-05T06:17:51.067Z,99.5
2022-08-05T06:19:27.415Z,99.5
2022-08-05T06:21:03.709Z,99.5
2022-08-05T06:22:40.044Z,99.5
2022-08-05T06:24:16.381Z,99.5
2022-08-05T06:25:52.706Z,99.5
2022-08-05T06:27:29.042Z,99.5
2022-08-05T06:29:05.364Z,99.5
2022-08-05T06:30:41.695Z,99.5
2022-08-05T06:32:17.040Z,99.5
2022-08-05T06:33:53.371Z,99.5
2022-08-05T06:35:29.707Z,99.5
2022-08-05T06:37:06.063Z,99.5
2022-08-05T06:38:42.374Z,99.5
2022-08-05T06:40:18.699Z,99.5
2022-08-05T06:41:55.043Z,99.5
2022-08-05T06:43:31.358Z,99.5
2022-08-05T06:45:07.685Z,99.5
2022-08-05T06:46:44.018Z,99.5
2022-08-05T06:48:20.355Z,99.5
2022-08-05T06:49:56.686Z,99.5
2022-08-05T06:51:33.019Z,99.5
2022-08-05T06:53:08.362Z,99.5
2022-08-05T06:54:44.709Z,99.5
2022-08-05T06:56:21.020Z,99.5
2022-08-05T06:57:57.351Z,99.5
2022-08-05T06:59:33.688Z,99.5
2022-08-05T07:01:10.019Z,99.5
2022-08-05T07:02:46.369Z,99.5
2022-08-05T07:04:22.678Z,99.5
2022-08-05T07:05:59.012Z,99.5
2022-08-05T07:07:35.331Z,99.5
2022-08-05T07:09:11.675Z,99.5
2022-08-05T07:10:48.009Z,99.5
2022-08-05T07:12:24.340Z,99.5
2022-08-05T07:13:59.692Z,99.5
2022-08-05T07:15:36.004Z,99.5
2022-08-05T07:17:12.348Z,99.5
2022-08-05T07:18:48.664Z,99.5
2022-08-05T07:20:24.998Z,99.5
2022-08-05T07:22:01.350Z,99.5
2022-08-05T07:23:37.661Z,99.5
2022-08-05T07:25:13.985Z,99.5
2022-08-05T07:26:50.322Z,99.5
2022-08-05T07:28:26.642Z,99.5
2022-08-05T07:30:02.983Z,99.5
2022-08-05T07:31:39.320Z,99.5
2022-08-05T07:33:15.639Z,99.5
2022-08-05T07:34:51.972Z,99.5
2022-08-05T07:36:28.315Z,99.5
2022-08-05T07:38:03.651Z,99.5
2022-08-05T07:39:39.985Z,99.5
2022-08-05T07:41:16.312Z,99.5
2022-08-05T07:42:52.645Z,99.5
2022-08-05T07:44:28.971Z,99.5
2022-08-05T07:46:05.304Z,99.5
2022-08-05T07:47:41.643Z,99.5
2022-08-05T07:49:17.970Z,99.5
2022-08-05T07:50:54.303Z,99.5
2022-08-05T07:52:30.635Z,99.5
2022-08-05T07:54:06.958Z,99.5
2022-08-05T07:55:43.299Z,99.5
2022-08-05T07:57:19.629Z,99.5
2022-08-05T07:58:55.958Z,99.5
2022-08-05T08:00:31.301Z,99.5
2022-08-05T08:02:07.634Z,99.5
2022-08-05T08:03:43.968Z,99.5
2022-08-05T08:05:20.281Z,99.5
2022-08-05T08:06:56.617Z,99.5
2022-08-05T08:08:32.977Z,99
2022-08-05T08:10:09.289Z,99
2022-08-05T08:11:45.616Z,99
2022-08-05T08:13:21.941Z,99
2022-08-05T08:14:58.297Z,99
2022-08-05T08:16:34.613Z,98.5
2022-08-05T08:18:10.934Z,98.5
2022-08-05T08:19:47.267Z,98.5
2022-08-05T08:21:23.596Z,98
2022-08-05T08:22:58.943Z,98
2022-08-05T08:24:35.280Z,98
2022-08-05T08:26:11.613Z,97.5
2022-08-05T08:27:47.973Z,98
2022-08-05T08:29:24.283Z,98
2022-08-05T08:31:00.625Z,98
2022-08-05T08:32:36.927Z,98
2022-08-05T08:35:49.588Z,98
2022-08-05T08:37:25.931Z,98.5
2022-08-05T08:39:02.267Z,99
2022-08-05T08:42:14.917Z,99.5
2022-08-05T08:43:51.267Z,99.5
2022-08-05T08:45:26.589Z,99.5
2022-08-05T08:47:02.930Z,99.5
2022-08-05T08:48:39.258Z,99.5
2022-08-05T08:50:15.588Z,99.5
2022-08-05T08:51:50.940Z,99.5
2022-08-05T08:53:27.265Z,99.5
2022-08-05T08:55:03.615Z,99
2022-08-05T08:56:39.940Z,99
2022-08-05T08:58:16.276Z,98.5
2022-08-05T08:59:52.602Z,99
2022-08-05T09:01:28.922Z,97.5
2022-08-05T09:03:05.263Z,96.5
2022-08-05T09:04:41.594Z,96
2022-08-05T09:06:17.928Z,96
2022-08-05T09:07:54.249Z,96
2022-08-05T09:09:30.580Z,96
2022-08-05T09:11:06.927Z,95.5
2022-08-05T09:12:42.273Z,96
2022-08-05T09:14:18.592Z,96
2022-08-05T09:15:54.954Z,96.5
2022-08-05T09:17:31.256Z,96.5
2022-08-05T09:19:07.602Z,96.5
2022-08-05T09:20:43.907Z,97
2022-08-05T09:22:20.249Z,97
2022-08-05T09:23:56.568Z,97
2022-08-05T09:25:32.901Z,97
2022-08-05T09:27:09.240Z,97
2022-08-05T09:28:45.599Z,97
2022-08-05T09:30:21.893Z,96.5
2022-08-05T09:31:58.224Z,96.5
2022-08-05T09:33:34.556Z,96.5
2022-08-05T09:36:46.240Z,96.5
2022-08-05T09:38:22.560Z,96.5
2022-08-05T09:39:58.893Z,96.5
2022-08-05T09:41:35.228Z,96
2022-08-05T09:43:11.550Z,96
2022-08-05T09:44:47.896Z,95.5
2022-08-05T09:46:24.217Z,94
2022-08-05T09:48:00.551Z,94
2022-08-05T09:49:36.875Z,94.5
2022-08-05T09:52:49.539Z,94.5
2022-08-05T09:54:25.878Z,94.5
2022-08-05T09:56:02.210Z,94.5
2022-08-05T09:57:37.550Z,95
2022-08-05T09:59:13.888Z,95
2022-08-05T10:00:50.213Z,95
2022-08-05T10:02:26.540Z,94.5
2022-08-05T10:04:02.877Z,94.5
2022-08-05T10:05:39.205Z,95
2022-08-05T10:07:15.546Z,95
2022-08-05T10:08:51.863Z,95
2022-08-05T10:10:28.194Z,94.5
2022-08-05T10:12:04.526Z,94.5
2022-08-05T10:13:40.853Z,94
2022-08-05T10:15:17.187Z,94.5
2022-08-05T10:16:53.538Z,94.5
2022-08-05T10:18:29.870Z,94.5
2022-08-05T10:20:06.179Z,94.5
2022-08-05T10:21:41.522Z,94.5
2022-08-05T10:23:17.857Z,94.5
2022-08-05T10:24:54.190Z,93.5
2022-08-05T10:26:30.535Z,94
2022-08-05T10:28:06.854Z,94.5
2022-08-05T10:29:43.174Z,94.5
2022-08-05T10:31:19.509Z,95
2022-08-05T10:32:55.875Z,94.5
2022-08-05T10:34:32.198Z,93.5
2022-08-05T10:36:08.514Z,93.5
2022-08-05T10:37:44.835Z,93.5
2022-08-05T10:39:21.169Z,93.5
2022-08-05T10:40:57.493Z,93.5
2022-08-05T10:42:32.845Z,94
2022-08-05T10:44:09.173Z,93.5
2022-08-05T10:45:45.507Z,92
2022-08-05T10:47:21.831Z,92.5
2022-08-05T10:48:58.169Z,92.5
2022-08-05T10:50:34.493Z,93
2022-08-05T10:52:10.823Z,92.5
2022-08-05T10:53:47.153Z,92
2022-08-05T10:55:23.498Z,91.5
2022-08-05T10:56:59.823Z,90.5
2022-08-05T10:58:36.146Z,90
2022-08-05T11:00:12.483Z,90.5
2022-08-05T11:01:48.806Z,89.5
2022-08-05T11:03:24.163Z,89.5
2022-08-05T11:05:00.499Z,90.5
2022-08-05T11:06:36.819Z,90.5
2022-08-05T11:08:13.153Z,90.5
2022-08-05T11:09:49.486Z,89
2022-08-05T11:11:25.821Z,87.5
2022-08-05T11:13:02.149Z,86
2022-08-05T11:14:38.469Z,84
2022-08-05T11:16:14.812Z,83.5
2022-08-05T11:17:51.142Z,84
2022-08-05T11:19:27.464Z,85
2022-08-05T11:21:03.813Z,85
2022-08-05T11:22:40.127Z,84
2022-08-05T11:24:15.487Z,85
2022-08-05T11:25:51.808Z,82.5
2022-08-05T11:27:28.143Z,81.5
2022-08-05T11:29:04.467Z,80.5
2022-08-05T11:30:40.800Z,79
2022-08-05T11:32:17.132Z,79.5
2022-08-05T11:33:53.450Z,78.5
2022-08-05T11:35:29.794Z,79
2022-08-05T11:37:06.151Z,76.5
2022-08-05T11:38:42.450Z,77.5
2022-08-05T11:40:18.807Z,78
2022-08-05T11:41:55.110Z,77.5
2022-08-05T11:43:31.434Z,76.5
2022-08-05T11:45:07.768Z,77
2022-08-05T11:46:43.128Z,76.5
2022-08-05T11:48:19.451Z,76
2022-08-05T11:49:55.781Z,76
2022-08-05T11:51:32.117Z,77.5
2022-08-05T11:53:08.439Z,78
2022-08-05T11:54:44.774Z,78
2022-08-05T11:56:21.155Z,77
2022-08-05T11:57:57.437Z,76.5
2022-08-05T11:59:33.766Z,77
2022-08-05T12:01:10.103Z,76
2022-08-05T12:02:46.426Z,75
2022-08-05T12:04:22.767Z,76
2022-08-05T12:05:59.082Z,75.5
2022-08-05T12:07:34.433Z,75
2022-08-05T12:09:10.767Z,74.5
2022-08-05T12:10:47.091Z,75
2022-08-05T12:12:23.428Z,74.5
2022-08-05T12:13:59.758Z,75
2022-08-05T12:15:36.097Z,75.5
2022-08-05T12:17:12.417Z,74
2022-08-05T12:18:48.782Z,73.5
2022-08-05T12:20:25.080Z,73.5
2022-08-05T12:22:01.421Z,73.5
2022-08-05T12:23:37.741Z,75
2022-08-05T12:25:14.068Z,75
2022-08-05T12:26:50.409Z,74
2022-08-05T12:28:25.747Z,73.5
2022-08-05T12:30:02.089Z,73.5
2022-08-05T12:31:38.417Z,73
2022-08-05T12:33:14.747Z,73.5
2022-08-05T12:34:51.084Z,74
2022-08-05T12:36:27.404Z,73.5
2022-08-05T12:38:03.731Z,73.5
2022-08-05T12:39:40.075Z,73.5
2022-08-05T12:41:16.398Z,75
2022-08-05T12:42:52.721Z,74
2022-08-05T12:44:29.056Z,74
2022-08-05T12:46:05.392Z,73
2022-08-05T12:47:41.722Z,72.5
2022-08-05T12:49:18.056Z,73
2022-08-05T12:50:54.391Z,73
2022-08-05T12:52:29.738Z,73
2022-08-05T12:54:06.063Z,73
2022-08-05T12:55:42.390Z,72.5
2022-08-05T12:57:18.729Z,72.5
2022-08-05T12:58:55.065Z,72
2022-08-05T13:00:31.382Z,72.5
2022-08-05T13:02:07.713Z,72
2022-08-05T13:03:44.077Z,72.5
2022-08-05T13:05:20.383Z,72.5
2022-08-05T13:06:56.702Z,72.5
2022-08-05T13:08:33.034Z,72
2022-08-05T13:10:09.365Z,72
2022-08-05T13:11:45.699Z,72.5
2022-08-05T13:13:21.056Z,72.5
2022-08-05T13:14:57.383Z,72
2022-08-05T13:16:33.715Z,72.5
2022-08-05T13:18:10.045Z,73
2022-08-05T13:19:46.378Z,73
2022-08-05T13:21:22.705Z,73
2022-08-05T13:22:59.054Z,73
2022-08-05T13:24:35.359Z,73.5
2022-08-05T13:26:11.692Z,73.5
2022-08-05T13:27:48.027Z,72.5
2022-08-05T13:29:24.374Z,73
2022-08-05T13:31:00.686Z,73
2022-08-05T13:32:37.020Z,74
2022-08-05T13:34:12.375Z,74
2022-08-05T13:35:48.701Z,74
2022-08-05T13:37:25.027Z,73.5
2022-08-05T13:39:01.362Z,73.5
2022-08-05T13:40:37.687Z,73
2022-08-05T13:42:14.022Z,72.5
2022-08-05T13:43:50.351Z,73
2022-08-05T13:45:26.679Z,72.5
2022-08-05T13:47:03.027Z,72.5
2022-08-05T13:48:39.345Z,72
2022-08-05T13:50:15.670Z,71.5
2022-08-05T13:51:52.009Z,69.5
2022-08-05T13:53:28.336Z,69.5
2022-08-05T13:55:03.678Z,68
2022-08-05T13:56:40.007Z,66.5
2022-08-05T13:58:16.347Z,64.5
2022-08-05T13:59:52.695Z,64
2022-08-05T14:01:29.008Z,64
2022-08-05T14:03:05.342Z,64.5
2022-08-05T14:04:41.676Z,65.5
2022-08-05T14:06:18.006Z,65.5
2022-08-05T14:07:54.347Z,65.5
2022-08-05T14:09:30.656Z,66
2022-08-05T14:11:06.997Z,66
2022-08-05T14:12:43.336Z,67
2022-08-05T14:14:18.676Z,67.5
2022-08-05T14:15:55.011Z,67.5
2022-08-05T14:17:31.541Z,68
2022-08-05T14:19:07.661Z,67
2022-08-05T14:20:44.016Z,66.5
2022-08-05T14:22:20.348Z,67
2022-08-05T14:23:56.705Z,66.5
2022-08-05T14:25:33.002Z,67
2022-08-05T14:27:09.332Z,67
2022-08-05T14:28:45.654Z,67
2022-08-05T14:30:21.990Z,67.5
2022-08-05T14:31:58.319Z,66
2022-08-05T14:33:34.652Z,66
2022-08-05T14:35:09.994Z,66.5
2022-08-05T14:36:46.325Z,66
2022-08-05T14:38:22.648Z,65
2022-08-05T14:39:59.008Z,65
2022-08-05T14:41:35.319Z,65.5
2022-08-05T14:43:11.665Z,65
2022-08-05T14:44:47.976Z,64.5
2022-08-05T14:46:24.303Z,63.5
2022-08-05T14:48:00.649Z,63.5
2022-08-05T14:49:36.977Z,62.5
2022-08-05T14:51:13.299Z,62
2022-08-05T14:52:49.631Z,61.5
2022-08-05T14:54:25.976Z,61.5
2022-08-05T14:56:01.326Z,62
2022-08-05T14:57:37.640Z,61.5
2022-08-05T14:59:13.973Z,62
2022-08-05T15:00:50.293Z,60.5
2022-08-05T15:02:26.628Z,61
2022-08-05T15:04:01.993Z,61.5
2022-08-05T15:05:38.329Z,61
2022-08-05T15:07:14.655Z,61
2022-08-05T15:08:50.007Z,60.5
2022-08-05T15:10:26.330Z,58.5
2022-08-05T15:12:02.711Z,59
2022-08-05T15:13:38.993Z,58
2022-08-05T15:15:15.336Z,58
2022-08-05T15:16:51.654Z,58
2022-08-05T15:18:28.000Z,58.5
2022-08-05T15:20:04.331Z,57.5
2022-08-05T15:21:40.646Z,57.5
2022-08-05T15:23:16.980Z,58
2022-08-05T15:24:53.312Z,57.5
2022-08-05T15:26:29.646Z,58
2022-08-05T15:28:06.031Z,57
2022-08-05T15:29:41.315Z,58.5
2022-08-05T15:31:17.646Z,58
2022-08-05T15:32:53.003Z,57
2022-08-05T15:34:28.356Z,58
2022-08-05T15:36:04.717Z,57
2022-08-05T15:37:41.030Z,56.5
2022-08-05T15:39:17.343Z,57
2022-08-05T15:40:53.670Z,57
2022-08-05T15:42:30.003Z,54
2022-08-05T15:44:06.372Z,52
2022-08-05T15:45:42.689Z,50.5
2022-08-05T15:47:18.998Z,51.5
2022-08-05T15:48:55.337Z,50
2022-08-05T15:50:31.651Z,49
2022-08-05T15:52:07.984Z,48.5
2022-08-05T15:53:44.338Z,47.5
2022-08-05T15:55:19.671Z,47.5
2022-08-05T15:56:55.999Z,48
2022-08-05T15:58:32.325Z,48
2022-08-05T16:00:08.670Z,48.5
2022-08-05T16:01:45.004Z,47
2022-08-05T16:03:21.323Z,46.5
2022-08-05T16:04:57.659Z,47.5
2022-08-05T16:06:33.996Z,46.5
2022-08-05T16:08:10.314Z,46
2022-08-05T16:09:46.689Z,47
2022-08-05T16:11:22.979Z,47
2022-08-05T16:12:59.327Z,47
2022-08-05T16:14:35.639Z,46.5
2022-08-05T16:16:10.981Z,46.5
2022-08-05T16:17:47.322Z,46.5
2022-08-05T16:19:23.665Z,46
2022-08-05T16:20:59.980Z,47
2022-08-05T16:22:36.307Z,47.5
2022-08-05T16:24:12.649Z,48
2022-08-05T16:25:48.961Z,48
2022-08-05T16:27:25.315Z,49
2022-08-05T16:29:01.632Z,49
2022-08-05T16:30:37.983Z,48.5
2022-08-05T16:32:14.310Z,49
2022-08-05T16:33:50.619Z,48.5
2022-08-05T16:35:26.948Z,49
2022-08-05T16:37:02.334Z,49.5
2022-08-05T16:38:38.622Z,49.5
2022-08-05T16:40:14.949Z,50
2022-08-05T16:41:51.297Z,49.5
2022-08-05T16:43:27.622Z,49
2022-08-05T16:45:03.953Z,49
2022-08-05T16:46:40.305Z,49.5
2022-08-05T16:48:16.615Z,49.5
2022-08-05T16:49:52.948Z,49.5
2022-08-05T16:51:29.268Z,49
2022-08-05T16:53:05.604Z,49
2022-08-05T16:54:41.963Z,49
2022-08-05T16:56:18.284Z,49
2022-08-05T16:57:53.622Z,49
2022-08-05T16:59:29.974Z,49.5
2022-08-05T17:01:06.275Z,49.5
2022-08-05T17:02:42.621Z,49.5
2022-08-05T17:04:18.970Z,50
2022-08-05T17:05:55.281Z,50.5
2022-08-05T17:07:31.620Z,50
2022-08-05T17:09:07.959Z,50.5
2022-08-05T17:10:44.320Z,50.5
2022-08-05T17:12:20.614Z,50.5
2022-08-05T17:13:56.931Z,50.5
2022-08-05T17:15:33.252Z,50.5
2022-08-05T17:17:09.664Z,50.5
2022-08-05T17:18:44.941Z,51
2022-08-05T17:20:21.265Z,50.5
2022-08-05T17:21:57.604Z,51
2022-08-05T17:23:33.925Z,51.5
2022-08-05T17:25:10.267Z,52
2022-08-05T17:26:46.575Z,51
2022-08-05T17:28:22.915Z,51.5
2022-08-05T17:29:59.251Z,51.5
2022-08-05T17:31:35.590Z,51.5
2022-08-05T17:33:11.911Z,51
2022-08-05T17:34:48.258Z,52
2022-08-05T17:36:24.567Z,51.5
2022-08-05T17:38:00.912Z,51.5
2022-08-05T17:39:36.275Z,51.5
2022-08-05T17:41:12.569Z,52
2022-08-05T17:42:48.914Z,51.5
2022-08-05T17:44:25.236Z,51
2022-08-05T17:46:01.575Z,51
2022-08-05T17:47:37.931Z,51
2022-08-05T17:49:14.255Z,51.5
2022-08-05T17:50:50.560Z,51.5
2022-08-05T17:52:26.893Z,51.5
2022-08-05T17:54:03.221Z,51.5
2022-08-05T17:55:39.588Z,51.5
2022-08-05T17:57:15.909Z,51.5
2022-08-05T17:58:52.231Z,51
2022-08-05T18:00:27.587Z,51
2022-08-05T18:02:03.898Z,51.5
2022-08-05T18:03:40.217Z,52
2022-08-05T18:05:16.561Z,52
2022-08-05T18:06:52.911Z,52
2022-08-05T18:08:29.256Z,51.5
2022-08-05T18:10:05.545Z,52
2022-08-05T18:11:41.875Z,51.5
2022-08-05T18:13:18.225Z,51.5
2022-08-05T18:14:54.556Z,51.5
2022-08-05T18:16:30.891Z,51.5
2022-08-05T18:18:07.210Z,51.5
2022-08-05T18:19:43.576Z,51.5
2022-08-05T18:21:19.866Z,51.5
2022-08-05T18:22:55.219Z,52
2022-08-05T18:24:31.549Z,52
2022-08-05T18:26:07.863Z,52
2022-08-05T18:27:44.209Z,52.5
2022-08-05T18:29:20.541Z,52.5
2022-08-05T18:30:56.873Z,53
2022-08-05T18:32:32.245Z,53
2022-08-05T18:34:07.597Z,53
2022-08-05T18:35:42.924Z,53
2022-08-05T18:37:19.261Z,53
2022-08-05T18:38:54.617Z,53
2022-08-05T18:40:30.971Z,52.5
2022-08-05T18:42:07.262Z,53
2022-08-05T18:43:43.594Z,53
2022-08-05T18:45:19.929Z,53
2022-08-05T18:46:56.251Z,53
2022-08-05T18:48:32.587Z,53
2022-08-05T18:50:08.925Z,53
2022-08-05T18:51:45.242Z,53.5
2022-08-05T18:53:21.582Z,53.5
2022-08-05T18:54:57.953Z,54
2022-08-05T18:56:34.269Z,53.5
2022-08-05T18:58:10.574Z,53.5
2022-08-05T18:59:46.904Z,54
2022-08-05T19:01:22.245Z,53.5
2022-08-05T19:02:58.604Z,54
2022-08-05T19:04:34.941Z,54
2022-08-05T19:06:11.263Z,54.5
2022-08-05T19:07:47.610Z,55
2022-08-05T19:09:23.903Z,55
2022-08-05T19:11:00.234Z,55
2022-08-05T19:12:36.577Z,55.5
2022-08-05T19:14:12.899Z,56
2022-08-05T19:15:49.223Z,55.5
2022-08-05T19:17:25.552Z,55.5
2022-08-05T19:19:01.892Z,56
2022-08-05T19:20:38.213Z,56
2022-08-05T19:22:14.556Z,56
2022-08-05T19:23:49.895Z,56
2022-08-05T19:25:26.224Z,56
2022-08-05T19:27:02.557Z,56.5
2022-08-05T19:28:38.893Z,56.5
2022-08-05T19:30:15.225Z,56.5
2022-08-05T19:31:51.544Z,56.5
2022-08-05T19:33:27.873Z,56.5
2022-08-05T19:35:04.223Z,56.5
2022-08-05T19:36:39.564Z,56.5
2022-08-05T19:38:15.917Z,57
2022-08-05T19:39:52.227Z,57
2022-08-05T19:41:28.561Z,57.5
2022-08-05T19:43:04.881Z,57.5
2022-08-05T19:44:41.218Z,57.5
2022-08-05T19:46:17.546Z,58
2022-08-05T19:47:53.876Z,58
2022-08-05T19:49:30.208Z,58
2022-08-05T19:51:06.540Z,58.5
2022-08-05T19:52:42.869Z,58.5
2022-08-05T19:54:19.206Z,58.5
2022-08-05T19:55:55.539Z,59
2022-08-05T19:57:30.875Z,59
2022-08-05T19:59:07.209Z,59
2022-08-05T20:00:43.540Z,59.5
2022-08-05T20:02:19.869Z,59.5
2022-08-05T20:03:56.201Z,59.5
2022-08-05T20:05:32.527Z,59.5
2022-08-05T20:07:08.868Z,60
2022-08-05T20:08:45.228Z,60
2022-08-05T20:10:21.548Z,60.5
2022-08-05T20:11:57.851Z,60.5
2022-08-05T20:13:34.202Z,60.5
2022-08-05T20:15:10.521Z,61
2022-08-05T20:16:46.851Z,61
2022-08-05T20:18:22.185Z,61.5
2022-08-05T20:19:58.526Z,61.5
2022-08-05T20:21:34.857Z,62
2022-08-05T20:23:11.185Z,62
2022-08-05T20:24:47.517Z,62.5
2022-08-05T20:26:23.843Z,62.5
2022-08-05T20:28:00.175Z,63
2022-08-05T20:29:36.513Z,63
2022-08-05T20:31:12.835Z,63
2022-08-05T20:32:49.167Z,63.5
2022-08-05T20:34:25.507Z,63.5
2022-08-05T20:36:01.828Z,63.5
2022-08-05T20:37:38.165Z,63.5
2022-08-05T20:39:13.507Z,64
2022-08-05T20:40:49.840Z,64
2022-08-05T20:42:26.182Z,64
2022-08-05T20:44:02.498Z,64.5
2022-08-05T20:45:38.838Z,64.5
2022-08-05T20:47:15.158Z,65
2022-08-05T20:48:51.508Z,65
2022-08-05T20:50:27.822Z,65
2022-08-05T20:52:04.150Z,65
2022-08-05T20:53:40.483Z,65.5
2022-08-05T20:55:16.814Z,65.5
2022-08-05T20:56:53.158Z,65.5
2022-08-05T20:58:29.469Z,65.5
2022-08-05T21:00:04.821Z,66
2022-08-05T21:01:41.153Z,65.5
2022-08-05T21:03:17.483Z,66
2022-08-05T21:04:53.817Z,66
2022-08-05T21:06:30.141Z,66
2022-08-05T21:08:06.484Z,66.5
2022-08-05T21:09:42.802Z,66.5
2022-08-05T21:11:19.156Z,66.5
2022-08-05T21:12:55.473Z,66.5
2022-08-05T21:14:31.805Z,66.5
2022-08-05T21:16:08.131Z,66.5
2022-08-05T21:17:44.482Z,67
2022-08-05T21:19:20.795Z,67
2022-08-05T21:20:56.146Z,67
2022-08-05T21:22:32.468Z,67
2022-08-05T21:24:08.800Z,67
2022-08-05T21:25:45.131Z,67
2022-08-05T21:27:21.460Z,67.5
2022-08-05T21:28:57.825Z,67.5
2022-08-05T21:30:34.117Z,67.5
2022-08-05T21:32:10.463Z,67.5
2022-08-05T21:33:46.793Z,67.5
2022-08-05T21:35:23.110Z,67.5
2022-08-05T21:36:59.461Z,67.5
2022-08-05T21:38:35.801Z,67.5
2022-08-05T21:40:12.103Z,67.5
2022-08-05T21:41:48.429Z,67.5
2022-08-05T21:43:23.779Z,68
2022-08-05T21:45:00.108Z,68
2022-08-05T21:46:36.448Z,68
2022-08-05T21:48:12.774Z,68
2022-08-05T21:49:49.112Z,68
2022-08-05T21:51:25.438Z,68.5
2022-08-05T21:53:01.773Z,68.5
2022-08-05T21:54:38.104Z,68.5
2022-08-05T21:56:14.435Z,68.5
2022-08-05T21:57:50.778Z,68.5
2022-08-05T21:59:27.094Z,68.5
2022-08-05T22:01:03.424Z,69
2022-08-05T22:02:39.774Z,69
2022-08-05T22:04:15.093Z,69
2022-08-05T22:05:51.428Z,69
2022-08-05T22:07:27.755Z,69